createdAt,value
2018-11-05T00:04:10.841Z,6.10
2018-11-05T00:09:14.214Z,6.20
2018-11-05T00:14:17.544Z,6.10
2018-11-05T00:19:20.851Z,6.10
2018-11-05T00:24:24.278Z,6.10
2018-11-05T00:29:27.586Z,6.10
2018-11-05T00:34:30.949Z,6.20
2018-11-05T00:39:34.289Z,6.30
2018-11-05T00:44:37.599Z,6.20
2018-11-05T00:49:40.858Z,6.30
2018-11-05T00:54:44.216Z,6.30
2018-11-05T00:59:47.529Z,6.30
2018-11-05T01:04:50.898Z,6.40
2018-11-05T01:09:54.213Z,6.30
2018-11-05T01:14:57.532Z,6.30
2018-11-05T01:20:00.888Z,6.30
2018-11-05T01:25:04.363Z,6.30
2018-11-05T01:30:10.276Z,6.20
2018-11-05T01:35:13.954Z,6.30
2018-11-05T01:40:17.245Z,6.40
2018-11-05T01:45:20.574Z,6.30
2018-11-05T01:50:23.849Z,6.30
2018-11-05T01:55:27.145Z,6.30
2018-11-05T02:00:30.439Z,6.10
2018-11-05T02:05:33.721Z,6.10
2018-11-05T02:15:40.210Z,6.20
2018-11-05T02:20:43.519Z,6.10
2018-11-05T02:25:46.857Z,6.10
2018-11-05T02:30:50.142Z,6.10
2018-11-05T02:35:53.473Z,6.20
2018-11-05T02:40:56.770Z,6.20
2018-11-05T02:46:00.058Z,6.30
2018-11-05T02:51:03.342Z,6.40
2018-11-05T02:56:06.889Z,6.30
2018-11-05T03:01:10.158Z,6.30
2018-11-05T03:06:13.530Z,6.30
2018-11-05T03:11:16.807Z,6.40
2018-11-05T03:16:20.146Z,6.40
2018-11-05T03:21:23.562Z,6.20
2018-11-05T03:26:26.850Z,6.10
2018-11-05T03:31:30.145Z,6.10
2018-11-05T03:36:33.454Z,5.90
2018-11-05T03:41:36.736Z,6.00
2018-11-05T03:46:40.108Z,5.90
2018-11-05T03:51:43.367Z,5.90
2018-11-05T03:56:46.788Z,5.90
2018-11-05T04:01:50.114Z,5.90
2018-11-05T04:06:53.429Z,5.90
2018-11-05T04:11:56.784Z,6.00
2018-11-05T04:17:00.123Z,6.00
2018-11-05T04:22:03.389Z,6.00
2018-11-05T04:27:06.727Z,6.00
2018-11-05T04:32:10.092Z,5.90
2018-11-05T04:37:13.376Z,5.80
2018-11-05T04:42:16.817Z,5.60
2018-11-05T04:47:20.106Z,5.60
2018-11-05T04:52:23.356Z,5.50
2018-11-05T04:57:27.051Z,5.50
2018-11-05T05:02:30.497Z,5.60
2018-11-05T05:07:33.960Z,5.60
2018-11-05T05:12:38.158Z,5.60
2018-11-05T05:17:41.760Z,5.60
2018-11-05T05:22:45.517Z,5.40
2018-11-05T05:27:48.745Z,5.40
2018-11-05T05:32:52.128Z,5.50
2018-11-05T05:37:55.487Z,5.30
2018-11-05T05:42:58.924Z,5.30
2018-11-05T05:48:02.298Z,5.20
2018-11-05T05:53:05.701Z,5.20
2018-11-05T05:58:09.136Z,5.10
2018-11-05T06:03:12.473Z,5.20
2018-11-05T06:08:15.898Z,5.20
2018-11-05T06:13:19.344Z,5.20
2018-11-05T06:18:22.642Z,5.00
2018-11-05T06:23:25.965Z,5.10
2018-11-05T06:28:29.409Z,4.90
2018-11-05T06:33:32.732Z,5.20
2018-11-05T06:38:36.157Z,5.00
2018-11-05T06:43:39.521Z,5.20
2018-11-05T06:48:42.957Z,5.10
2018-11-05T06:53:46.260Z,5.20
2018-11-05T06:58:49.844Z,5.20
2018-11-05T07:03:53.172Z,5.20
2018-11-05T07:08:56.474Z,5.30
2018-11-05T07:13:59.868Z,5.30
2018-11-05T07:19:03.690Z,5.30
2018-11-05T07:24:06.710Z,5.30
2018-11-05T07:29:10.064Z,5.40
2018-11-05T07:34:13.587Z,5.40
2018-11-05T07:39:16.848Z,5.40
2018-11-05T07:44:20.366Z,5.40
2018-11-05T07:49:23.785Z,5.50
2018-11-05T07:54:27.167Z,5.60
2018-11-05T07:59:30.577Z,5.60
2018-11-05T08:04:33.877Z,5.70
2018-11-05T08:09:37.190Z,5.60
2018-11-05T08:14:40.648Z,5.70
2018-11-05T08:19:43.965Z,5.80
2018-11-05T08:24:47.367Z,6.00
2018-11-05T08:29:50.762Z,6.20
2018-11-05T08:34:54.181Z,6.40
2018-11-05T08:39:57.553Z,6.50
2018-11-05T08:45:01.016Z,6.70
2018-11-05T08:50:05.022Z,6.80
2018-11-05T08:55:10.582Z,6.90
2018-11-05T09:00:21.981Z,7.10
2018-11-05T09:05:25.496Z,7.30
2018-11-05T09:10:29.071Z,7.30
2018-11-05T09:15:32.169Z,7.50
2018-11-05T09:20:36.563Z,7.60
2018-11-05T09:25:40.026Z,7.70
2018-11-05T09:30:43.402Z,7.80
2018-11-05T09:35:48.102Z,7.80
2018-11-05T09:40:51.408Z,7.90
2018-11-05T09:45:54.892Z,8.20
2018-11-05T09:50:58.614Z,8.20
2018-11-05T09:56:02.075Z,8.20
2018-11-05T10:01:06.020Z,8.40
2018-11-05T10:06:09.529Z,8.60
2018-11-05T10:11:12.857Z,8.70
2018-11-05T10:16:16.527Z,8.80
2018-11-05T10:21:19.821Z,8.80
2018-11-05T10:26:23.241Z,8.90
2018-11-05T10:31:27.793Z,9.00
2018-11-05T10:36:31.131Z,9.10
2018-11-05T10:41:34.441Z,9.30
2018-11-05T10:46:37.779Z,9.40
2018-11-05T10:51:41.253Z,9.50
2018-11-05T10:56:44.670Z,9.60
2018-11-05T11:01:53.536Z,9.80
2018-11-05T11:06:56.979Z,9.90
2018-11-05T11:12:00.826Z,10.10
2018-11-05T11:17:04.210Z,10.20
2018-11-05T11:22:07.720Z,10.30
2018-11-05T11:27:11.010Z,10.40
2018-11-05T11:32:14.511Z,10.50
2018-11-05T11:37:17.967Z,10.60
2018-11-05T11:42:21.346Z,10.50
2018-11-05T11:47:25.757Z,10.50
2018-11-05T11:52:29.101Z,10.30
2018-11-05T11:57:32.466Z,10.40
2018-11-05T12:02:35.901Z,10.40
2018-11-05T12:07:39.264Z,10.60
2018-11-05T12:12:42.705Z,10.70
2018-11-05T12:17:47.213Z,10.90
2018-11-05T12:22:50.980Z,11.00
2018-11-05T12:27:54.360Z,11.10
2018-11-05T12:32:57.889Z,11.20
2018-11-05T12:38:01.162Z,11.30
2018-11-05T12:43:04.827Z,11.40
2018-11-05T12:48:08.185Z,11.50
2018-11-05T12:53:11.625Z,11.50
2018-11-05T12:58:14.956Z,11.70
2018-11-05T13:03:18.281Z,12.00
2018-11-05T13:08:21.645Z,12.50
2018-11-05T13:13:24.996Z,13.30
2018-11-05T13:18:28.256Z,13.60
2018-11-05T13:23:38.247Z,14.30
2018-11-05T13:28:41.520Z,14.50
2018-11-05T13:33:44.842Z,14.70
2018-11-05T13:38:48.237Z,14.60
2018-11-05T13:43:51.438Z,15.50
2018-11-05T13:48:56.441Z,16.10
2018-11-05T13:53:59.082Z,16.00
2018-11-05T13:59:02.499Z,16.40
2018-11-05T14:04:05.842Z,16.50
2018-11-05T14:09:09.586Z,16.40
2018-11-05T14:14:12.875Z,16.30
2018-11-05T14:19:16.229Z,16.80
2018-11-05T14:24:19.528Z,16.50
2018-11-05T14:29:23.360Z,16.50
2018-11-05T14:34:26.184Z,16.30
2018-11-05T14:39:29.463Z,16.20
2018-11-05T14:44:32.752Z,15.90
2018-11-05T14:49:36.017Z,15.40
2018-11-05T14:54:39.306Z,15.30
2018-11-05T14:59:42.566Z,15.10
2018-11-05T15:04:45.921Z,14.80
2018-11-05T15:09:49.219Z,14.70
2018-11-05T15:14:52.616Z,14.50
2018-11-05T15:19:59.458Z,14.30
2018-11-05T15:25:02.492Z,14.20
2018-11-05T15:30:08.214Z,13.90
2018-11-05T15:35:11.557Z,13.80
2018-11-05T15:40:16.123Z,13.60
2018-11-05T15:45:20.610Z,13.40
2018-11-05T15:50:23.897Z,13.00
2018-11-05T15:55:27.506Z,12.70
2018-11-05T16:00:30.909Z,12.60
2018-11-05T16:05:34.232Z,12.40
2018-11-05T16:10:37.629Z,12.20
2018-11-05T16:15:41.006Z,12.10
2018-11-05T16:20:44.316Z,11.90
2018-11-05T16:25:47.665Z,11.60
2018-11-05T16:30:50.932Z,11.40
2018-11-05T16:35:54.361Z,11.30
2018-11-05T16:40:57.648Z,11.10
2018-11-05T16:46:00.972Z,11.00
2018-11-05T16:51:04.255Z,10.70
2018-11-05T16:56:07.626Z,10.60
2018-11-05T17:01:11.220Z,10.40
2018-11-05T17:06:14.363Z,10.20
2018-11-05T17:11:17.711Z,10.20
2018-11-05T17:16:20.998Z,10.10
2018-11-05T17:21:24.339Z,10.00
2018-11-05T17:26:27.770Z,9.80
2018-11-05T17:31:31.009Z,9.60
2018-11-05T17:36:34.544Z,9.50
2018-11-05T17:41:38.364Z,9.40
2018-11-05T17:46:41.786Z,9.30
2018-11-05T17:51:45.117Z,9.30
2018-11-05T17:56:48.427Z,9.20
2018-11-05T18:01:51.809Z,9.10
2018-11-05T18:06:55.175Z,9.10
2018-11-05T18:11:58.458Z,8.90
2018-11-05T18:17:01.841Z,8.90
2018-11-05T18:22:05.314Z,8.80
2018-11-05T18:27:08.865Z,8.80
2018-11-05T18:32:17.472Z,8.80
2018-11-05T18:37:20.968Z,8.50
2018-11-05T18:42:24.433Z,8.40
2018-11-05T18:47:27.893Z,8.40
2018-11-05T18:52:31.373Z,8.10
2018-11-05T18:57:34.865Z,8.10
2018-11-05T19:02:38.438Z,8.10
2018-11-05T19:07:41.729Z,8.10
2018-11-05T19:12:45.144Z,8.00
2018-11-05T19:17:48.969Z,8.00
2018-11-05T19:22:52.982Z,7.90
2018-11-05T19:27:56.440Z,7.80
2018-11-05T19:32:59.984Z,7.60
2018-11-05T19:38:03.761Z,7.50
2018-11-05T19:43:07.651Z,7.50
2018-11-05T19:48:12.457Z,7.50
2018-11-05T19:53:16.248Z,7.40
2018-11-05T20:03:48.441Z,7.10
2018-11-05T20:08:52.492Z,6.90
2018-11-05T20:13:56.091Z,6.80
2018-11-05T20:18:59.540Z,6.80
2018-11-05T20:24:03.041Z,6.80
2018-11-05T20:29:07.680Z,6.80
2018-11-05T20:34:11.086Z,6.80
2018-11-05T20:39:14.756Z,6.80
2018-11-05T20:44:18.276Z,6.70
2018-11-05T20:49:21.947Z,6.60
2018-11-05T20:54:25.535Z,6.60
2018-11-05T20:59:29.071Z,6.40
2018-11-05T21:04:32.588Z,6.30
2018-11-05T21:09:36.135Z,6.20
2018-11-05T21:14:39.595Z,6.20
2018-11-05T21:19:42.983Z,6.10
2018-11-05T21:24:46.162Z,6.10
2018-11-05T21:29:49.485Z,6.10
2018-11-05T21:34:52.978Z,6.00
2018-11-05T21:39:56.259Z,5.90
2018-11-05T21:44:59.581Z,5.90
2018-11-05T21:50:05.214Z,5.80
2018-11-05T21:55:08.885Z,5.80
2018-11-05T22:00:15.185Z,5.70
2018-11-05T22:05:19.042Z,5.70
2018-11-05T22:10:22.428Z,5.50
2018-11-05T22:15:30.365Z,5.40
2018-11-05T22:20:34.074Z,5.10
2018-11-05T22:25:37.511Z,5.00
2018-11-05T22:30:42.363Z,5.10
2018-11-05T22:35:45.823Z,5.10
2018-11-05T22:40:49.310Z,5.10
2018-11-05T22:45:53.150Z,5.10
2018-11-05T22:50:56.711Z,5.20
2018-11-05T22:56:00.333Z,5.20
2018-11-05T23:01:06.865Z,5.20
2018-11-05T23:06:10.528Z,5.00
2018-11-05T23:11:14.141Z,5.00
2018-11-05T23:16:17.654Z,5.00
2018-11-05T23:21:21.239Z,4.90
2018-11-05T23:26:24.855Z,4.80
2018-11-05T23:31:28.490Z,4.80
2018-11-05T23:36:32.076Z,4.80
2018-11-05T23:41:35.457Z,4.70
2018-11-05T23:46:38.767Z,4.70
2018-11-05T23:51:42.155Z,4.70
2018-11-05T23:56:45.424Z,4.70
